首页
METAR-TAF:

METAR-TAF

机场 :

Tucumcari Municipal Airport

Tucumcari, 新墨西哥州, 美国

纬度: 35-10-58N, 经度: 103-36-11W, 海拔: 1239米

当前天气观测

该预报发布于53分钟前的13:53 UTC
风速8节,风向
温度 21°C
湿度 23%
气压 1012 hPa
能見度: 16.1公里
天空无云

METAR: KTCC 261353Z AUTO 35008KT 10SM CLR 21/M01 A2988 RMK AO2 WSHFT 1322 SLP054 T02061011

时间: 08:46 (14:46 UTC)

预报

该预报发布于3小时和6分钟前的11:40 UTC
预报有效从26日的 12点(UTC)到 27日的 12点(UTC)
风速11节,风向西
能見度: 10公里
天空无云
从 26日的 1800点(UTC)
风速15节,风向西,有时为25节阵风
能見度: 10公里
天空无云
从 27日的 0100点(UTC)
风速10节,风向西转西北
能見度: 9.7公里
散云层高于5000英尺
从 27日的 0500点(UTC)
风速8节,风向
能見度: 10公里
天空无云

TAF: KTCC 261140Z 2612/2712 27011KT P6SM SKC FM261800 28015G25KT P6SM SKC FM270100 29010KT 6SM FU SCT050 FM270500 36008KT P6SM SKC

超过4000个机场的气象观测和天气预报(METAR&TAF报告)。

可查询的气象台以黄色和红色小点在地图上表示。

将鼠标移到小点上方,可查看气象台名称。

然后点击查看天气观测和预报。

如需切换地图:点击带黑十字的绿色按钮放大地图;点击带横线的绿色按钮缩小地图;或者点击绿色箭头查看邻近地区的地图。


METAR-TAF: